Diysong.com

 找回密碼
 馬上註冊
二手交換區
收起/展開 收藏本版 (3) |訂閱

二手交換區 今日: 10 |主題: 180|排名: 8 

版主: hn702906
在此說明,二手區歡迎大家出售手中的二手套件,零件,及DIY相關料件.但有幾點請作者注意:

1.為免混亂,每帖只限於同一作者出售物品.
2.新品或是團購請勿在此銷售.
3.發文請勿違反板規.
4.站方不會介入、也不會受理交易者雙方的   私下糾紛處理,惟將保留相關證據以協助警方辦案。


我們的建議:
發文者請詳細描述欲售(或是徵)物內容,包含:
物品新舊
欲售價格
交易地點
連絡方式


作者 回復/查看 最後發表
預覽 wireless trail camera with remote control suppliers New xwz 半小時前 01 xwz 半小時前
預覽 wholesale outdoor solar lights New xwz 半小時前 01 xwz 半小時前
預覽 perfect scientific treatise New xwz 半小時前 01 xwz 半小時前
預覽 cheap LED Projectors New xwz 半小時前 01 xwz 半小時前
預覽 garden design pictures Made in China New xwz 半小時前 01 xwz 半小時前
預覽 Kitchen Countertop manufacturer New xwz 半小時前 01 xwz 半小時前
預覽 Surface treatment factory New xwz 半小時前 01 xwz 半小時前
預覽 FM UL CE Grooved Mechanical Tee New xwz 半小時前 01 xwz 半小時前
預覽 Pillow Block Ball Bearings size New xwz 半小時前 03 xwz 半小時前
預覽 China Industrial accessories prototype 新人帖 New xwz 半小時前 02 xwz 半小時前
預覽 Customized Home Appliances Prototype wio5202 2018-1-5 032 wio5202 2018-1-5 09:53 AM
預覽 Grooved Rigid Coupling wio5202 2018-1-5 025 wio5202 2018-1-5 09:52 AM
預覽 Bank Reception Desk wio5202 2018-1-5 010 wio5202 2018-1-5 09:52 AM
預覽 bearing used rolling mill manufacturers wio5202 2018-1-5 013 wio5202 2018-1-5 09:50 AM
預覽 New Virtual Reality Glasses factory wio5202 2018-1-5 026 wio5202 2018-1-5 09:50 AM
預覽 apartment corridor design Made in China wio5202 2018-1-5 011 wio5202 2018-1-5 09:48 AM
預覽 perfect scientific treatise wio5202 2018-1-5 015 wio5202 2018-1-5 09:47 AM
預覽 solar Reflection Films furnace manufacturers wio5202 2018-1-5 016 wio5202 2018-1-5 09:46 AM
預覽 China game camera antenna 新人帖 wio5202 2018-1-5 08 wio5202 2018-1-5 09:46 AM
預覽 贈送DIVINI CLASSICAL 5 空箱一對 自取 tthsieh65800 2017-11-27 4333 賴弘達 2017-12-11 12:09 AM
預覽 Ceramic rope Ceramic round rope manufacturers fyu12134 2017-11-22 084 fyu12134 2017-11-22 10:06 AM
預覽 China European power socket factory fyu12134 2017-11-22 066 fyu12134 2017-11-22 10:06 AM
預覽 China Navel Orange fyu12134 2017-11-22 070 fyu12134 2017-11-22 10:05 AM
預覽 artificial grass china fyu12134 2017-11-22 054 fyu12134 2017-11-22 10:05 AM
預覽 35L plant pots fyu12134 2017-11-22 057 fyu12134 2017-11-22 10:04 AM
預覽 The Most Popular Polyester Pop-up Garden Bag price fyu12134 2017-11-22 056 fyu12134 2017-11-22 10:04 AM
預覽 The Most Popular Polyester Pop-up Garden Bag price fyu12134 2017-11-22 059 fyu12134 2017-11-22 10:00 AM
預覽 washer truck fyu12134 2017-11-22 071 fyu12134 2017-11-22 09:58 AM
預覽 China sectional garage door opener 新人帖 fyu12134 2017-11-22 059 fyu12134 2017-11-22 09:58 AM
預覽 出讓 阿仁 DAC achala 2017-10-24 1219 achala 2017-11-21 09:10 PM
預覽 出讓,DS團購的DAC1955Pro(含對應機箱) 新人帖 achala 2017-10-21 2305 achala 2017-11-16 06:26 PM
預覽 buy Warehouse High Bay Lighting wd123E22 2017-11-15 073 wd123E22 2017-11-15 11:01 AM
預覽 HR-CLP-15 manufacturers wd123E22 2017-11-15 084 wd123E22 2017-11-15 11:00 AM
預覽 buy STJG Series Intermittent Liquid Adding System wd123E22 2017-11-15 066 wd123E22 2017-11-15 11:00 AM
預覽 China Electric Circle Head Bee Smoker suppliers wd123E22 2017-11-15 058 wd123E22 2017-11-15 11:00 AM
預覽 china electric road bicycles suppliers wd123E22 2017-11-15 048 wd123E22 2017-11-15 11:00 AM
預覽 100W Corn Light wd123E22 2017-11-15 0113 wd123E22 2017-11-15 10:59 AM
預覽 cheap DTH Hammer & DTH Hammer Bit wd123E22 2017-11-15 068 wd123E22 2017-11-15 10:59 AM
預覽 China PCB Board wd123E22 2017-11-15 062 wd123E22 2017-11-15 10:58 AM
預覽 Copper Base PCB made in China wd123E22 2017-11-15 0127 wd123E22 2017-11-15 10:58 AM
預覽 Aluminum PCB 新人帖 wd123E22 2017-11-15 0121 wd123E22 2017-11-15 10:56 AM
預覽 誠徵 DS L4 機殼 kevin60 2017-11-14 069 kevin60 2017-11-14 05:09 PM
預覽 ARC R2 m2 的専用機箱, 本站買的 imim804 2017-10-15 8353 imim804 2017-11-1 12:51 PM
預覽 徵 L4 機殼 未使用 新人帖 kevin60 2017-10-30 090 kevin60 2017-10-30 04:40 PM
預覽 歡迎光臨Yu-Studio.. 新人帖 attach_img yu-studio 2016-12-15 2760 yu-studio 2017-10-23 10:09 PM
預覽 沒有面板,單純的黑色機箱,附四個腳墊,售1200元含運 imim804 2017-10-13 3173 imim804 2017-10-15 02:57 PM
預覽 DS CP2 調色盤完全套件,含機箱。沒裝,靜靜沈睡中。 fjc36 2017-2-9 151613 fjc36 2017-10-15 12:36 PM
預覽 出售 LOOK-T 845 211輸出變壓器 mayamy 2017-10-3 0173 mayamy 2017-10-3 07:44 PM
預覽 售UTC 級間變壓器 na9961 2017-10-3 0116 na9961 2017-10-3 07:26 AM
預覽 售美製降壓變壓器 TRIAD na9961 2017-9-25 0147 na9961 2017-9-25 07:55 AM
下一頁 »

手機版|Diysong.com  

GMT+8, 2018-1-17 11:03 AM , Processed in 0.102303 second(s), 14 queries .

Powered by Discuz! X3.2

© 2001-2013 Comsenz Inc.

返回頂部 返回版塊